»·PEaware :: N7GL KNYL-KSAN

N7GL :: KNYL-KSAN

FLIGHT INFORMATION

Flight Status: Arrived
Operator: Privately registered:
United States
More flights under this callsign
Pilot: Georg L. (13308)
Aircraft: BEECH AIRCRAFT SUPER KING AIR 350
(B350)
More flights by this aircraft type
Origin: KNYL Yuma MCAS/Yuma Intl
United States
Destination: KSAN San Diego Intl-Lindbergh
United States
More flights between these airports :: More routes between these airports
Route: +BZA IPL V317 PGY
File this flight plan on PilotEdge
Remarks:
Altitude:
(Current/Filed)
18,000ft
Speed:
(Current/Filed)
303kts
Departed: 03-Dec-20 11:33 AM
Arrived: 03-Dec-20 12:13 PM
Distance/Time
Traveled:
130nm/0:40
Distance/Time
To Go:
Arrived

Flight Plot

Page will automatically refresh every two minutes.

Flight plan parsing failed; only flown route is shown


Map Options




Map Legend


Flown Route
Filed Route
Departure Airport
Arrival Airport
Navaid (VOR, NDB)
Fix

Horizontal Profiles

Position Reports

Time Latitude Longitude Heading Altitude Ground
Speed
03-Dec-20 11:13 32.660892 -114.609552 1 193ft 0kts
03-Dec-20 11:14 32.660892 -114.609552 1 193ft 0kts
03-Dec-20 11:15 32.660892 -114.609552 0 193ft 0kts
03-Dec-20 11:16 32.660892 -114.609552 1 193ft 0kts
03-Dec-20 11:17 32.660892 -114.609552 1 193ft 0kts
03-Dec-20 11:18 32.660892 -114.609552 1 193ft 0kts
03-Dec-20 11:19 32.660892 -114.609552 1 193ft 0kts
03-Dec-20 11:20 32.660892 -114.609552 1 193ft 0kts
03-Dec-20 11:21 32.660892 -114.609552 1 193ft 0kts
03-Dec-20 11:22 32.660892 -114.609552 1 193ft 0kts
03-Dec-20 11:23 32.660892 -114.609552 1 193ft 0kts
03-Dec-20 11:24 32.661037 -114.609433 75 193ft 5kts
03-Dec-20 11:25 32.659097 -114.609236 173 192ft 0kts
03-Dec-20 11:26 32.658993 -114.607575 88 192ft 7kts
03-Dec-20 11:27 32.659501 -114.606667 41 193ft 0kts
03-Dec-20 11:28 32.660056 -114.605629 92 193ft 6kts
03-Dec-20 11:29 32.656176 -114.603860 178 193ft 29kts
03-Dec-20 11:30 32.652128 -114.605649 113 191ft 12kts
03-Dec-20 11:31 32.652200 -114.603798 43 191ft 12kts
03-Dec-20 11:32 32.672175 -114.604049 1 1015ft 133kts
03-Dec-20 11:33 32.714516 -114.602673 6 3175ft 167kts
03-Dec-20 11:34 32.760056 -114.615274 316 5601ft 193kts
03-Dec-20 11:35 32.766362 -114.682337 272 7915ft 209kts
03-Dec-20 11:36 32.765416 -114.750787 273 10333ft 206kts
03-Dec-20 11:37 32.764137 -114.817891 275 12833ft 202kts
03-Dec-20 11:38 32.762844 -114.883602 277 15329ft 198kts
03-Dec-20 11:39 32.761540 -114.947776 278 17501ft 193kts
03-Dec-20 11:41 32.760444 -115.015276 277 18361ft 236kts
03-Dec-20 11:42 32.758655 -115.101268 275 18337ft 277kts
03-Dec-20 11:43 32.756511 -115.196910 275 18331ft 299kts
03-Dec-20 11:44 32.754350 -115.297290 275 18327ft 307kts
03-Dec-20 11:45 32.751949 -115.399241 275 18326ft 310kts
03-Dec-20 11:46 32.749446 -115.501946 275 18326ft 311kts
03-Dec-20 11:47 32.751171 -115.603946 279 18325ft 308kts
03-Dec-20 11:48 32.754210 -115.705419 278 18327ft 308kts
03-Dec-20 11:49 32.756742 -115.807180 278 18326ft 308kts
03-Dec-20 11:50 32.759130 -115.909053 278 18326ft 308kts
03-Dec-20 11:51 32.761436 -116.010652 278 18312ft 308kts
03-Dec-20 11:52 32.763654 -116.112031 278 18292ft 308kts
03-Dec-20 11:53 32.765789 -116.213858 277 18279ft 307kts
03-Dec-20 11:54 32.767923 -116.316139 277 17780ft 321kts
03-Dec-20 11:55 32.770037 -116.420690 277 16342ft 311kts
03-Dec-20 11:55 32.771616 -116.506056 276 15330ft 311kts
03-Dec-20 11:57 32.759739 -116.624120 234 13863ft 328kts
03-Dec-20 11:57 32.709953 -116.688217 230 12850ft 310kts
03-Dec-20 11:59 32.643881 -116.775118 230 11431ft 300kts
03-Dec-20 11:59 32.598409 -116.837822 230 10268ft 303kts
03-Dec-20 12:01 32.575616 -116.945170 299 8445ft 291kts
03-Dec-20 12:01 32.624550 -116.983454 351 7193ft 243kts
03-Dec-20 12:02 32.687457 -117.001933 351 5668ft 226kts
03-Dec-20 12:03 32.742752 -116.997812 62 5014ft 205kts
03-Dec-20 12:04 32.735004 -116.931302 100 4994ft 204kts
03-Dec-20 12:05 32.721004 -116.869741 120 4971ft 206kts
03-Dec-20 12:06 32.677142 -116.893470 259 4500ft 255kts
03-Dec-20 12:07 32.682011 -116.971943 289 3549ft 232kts
03-Dec-20 12:08 32.698107 -117.042651 288 2393ft 213kts
03-Dec-20 12:09 32.712368 -117.102410 289 1643ft 151kts
03-Dec-20 12:10 32.722570 -117.145090 287 764ft 115kts
03-Dec-20 12:11 32.731113 -117.179605 288 61ft 99kts
03-Dec-20 12:12 32.734798 -117.190022 105 22ft 0kts
03-Dec-20 12:13 32.734308 -117.188011 105 22ft 22kts
03-Dec-20 12:14 32.732429 -117.180241 105 22ft 16kts
03-Dec-20 12:15 32.733326 -117.178703 13 22ft 0kts
03-Dec-20 12:16 32.733326 -117.178703 13 22ft 0kts
03-Dec-20 12:17 32.733326 -117.178703 13 22ft 0kts

Navigation Log

Ident Type
Flight plan parsing failed, navigation log unavailable